This is the latest recevied weather packets stored in our database for station/object N7AWM. If no packets are shown the sender has not sent any weather packets the latest 10 day(s).
| Time | Temp. | Humidity | Pressure | Rain* | Wind** | Luminosity | Snow |
|---|---|---|---|---|---|---|---|
| 1788493072 | 13.89° C | 59% | 1006.2 hPa | 0 mm | - | - | - |
| 1788492227 | 13.89° C | 56% | 1006.1 hPa | 0 mm | - | - | - |
| 1788491387 | 13.89° C | 53% | 1005.9 hPa | 0 mm | - | - | - |
| 1788490690 | 14.44° C | 53% | 1005.5 hPa | 0 mm | - | - | - |
| 1788490547 | 14.44° C | 53% | 1005.5 hPa | 0 mm | - | - | - |
| 1788489707 | 14.44° C | 55% | 1005.4 hPa | 0 mm | - | - | - |
| 1788488867 | 14.44° C | 56% | 1005.2 hPa | 0 mm | - | - | - |
| 1788488028 | 15° C | 56% | 1005.3 hPa | 0 mm | - | - | - |
| 1788487188 | 15.56° C | 55% | 1005.5 hPa | 0 mm | - | - | - |
| 1788486348 | 15.56° C | 55% | 1005.3 hPa | 0 mm | - | - | - |
| 1788485508 | 16.11° C | 53% | 1005.2 hPa | 0 mm | - | - | - |
| 1788484668 | 16.67° C | 51% | 1005.1 hPa | 0 mm | - | - | - |
| 1788483828 | 17.78° C | 49% | 1004.9 hPa | 0 mm | - | - | - |
| 1788482988 | 18.89° C | 43% | 1005 hPa | 0 mm | - | - | - |
| 1788482148 | 18.33° C | 44% | 1004.9 hPa | 0 mm | - | - | - |
| 1788481308 | 18.89° C | 44% | 1005 hPa | 0 mm | - | - | - |
| 1788480468 | 18.89° C | 41% | 1005 hPa | 0 mm | - | - | - |
| 1788479628 | 18.33° C | 41% | 1005 hPa | 0 mm | - | - | - |
| 1788478788 | 17.78° C | 45% | 1005 hPa | 0 mm | - | - | - |
| 1788477948 | 17.78° C | 45% | 1005.1 hPa | 0 mm | - | - | - |
| 1788477108 | 17.78° C | 43% | 1005.3 hPa | 0 mm | - | - | - |
| 1788476268 | 17.78° C | 44% | 1005.3 hPa | 0 mm | - | - | - |
| 1788475428 | 18.33° C | 44% | 1005.3 hPa | 0 mm | - | - | - |
| 1788474589 | 18.89° C | 43% | 1005.4 hPa | 0 mm | - | - | - |
| 1788473749 | 18.33° C | 43% | 1005.5 hPa | 0 mm | - | - | - |
* Rain latest hour (hover to see other rain measurements)
** Current wind speed in m/s (hover to see current wind gust speed)